Главная страница
METAR-TAF:

METAR-TAF

Аэропорты :

Wrigley, Северо-Западные Территории, Канада

широта: 63-13N, долгота: 123-26W, высота над уровнем моря: 150 м

Текущие метеонаблюдения

Эта сводка был подготовлена 5 часа и 33 минут назад, в 23:00 UTC
Ветер 4 Узел от юго-восточный
Температура -8°C
Влажность 52%
Давление 1007 hPa
Видимость: 24.1 км
Отдельные облака на высоте 14000 фута
Рассеянная облачность на высоте 25000 фута

METAR: CYWY 222300Z 14004KT 15SM SCT140 BKN250 M08/M16 A2973 RMK AC3CI4 -7.3/-17.6/0/53 LAST OBS/NXT 231500Z SLP084

Время: 21:33 (04:33 UTC)


TAF: отсутствует

Метеонаблюдения и прогнозы для более 4000 аэропортов (сводки METAR и TAF).

Имеющиеся станции представлены на карте желтыми и красными точками.

Чтобы увидеть название станции, наведите на нее мышь.

Затем щелкните, чтобы увидеть метеонаблюдения и метеопрогнозы.

Управление картой: чтобы увеличить масштаб, щелкните зеленые кнопки с черным крестиком; чтобы уменьшить масштаб, щелкните зеленую кнопку с тире; для просмотра соседних карт щелкайте зеленые стрелки.


METAR-TAF: